createdAt,value
2023-04-15T00:01:02.741Z,6.40
2023-04-15T00:03:30.247Z,6.41
2023-04-15T00:05:58.072Z,6.30
2023-04-15T00:08:25.612Z,6.31
2023-04-15T00:10:54.242Z,6.30
2023-04-15T00:13:21.201Z,6.38
2023-04-15T00:15:48.196Z,6.46
2023-04-15T00:18:15.233Z,6.46
2023-04-15T00:20:42.451Z,6.57
2023-04-15T00:23:09.493Z,6.53
2023-04-15T00:25:36.766Z,6.41
2023-04-15T00:28:05.334Z,6.45
2023-04-15T00:30:32.485Z,6.48
2023-04-15T00:32:59.649Z,6.52
2023-04-15T00:35:26.688Z,6.52
2023-04-15T00:37:53.996Z,6.47
2023-04-15T00:40:21.914Z,6.48
2023-04-15T00:42:49.949Z,6.45
2023-04-15T00:45:19.093Z,6.52
2023-04-15T00:47:46.342Z,6.45
2023-04-15T00:50:13.317Z,6.44
2023-04-15T00:52:40.905Z,6.50
2023-04-15T00:55:09.690Z,6.47
2023-04-15T00:57:37.079Z,6.37
2023-04-15T01:00:05.765Z,6.29
2023-04-15T01:02:34.128Z,6.30
2023-04-15T01:05:02.371Z,6.31
2023-04-15T01:07:29.457Z,6.28
2023-04-15T01:09:56.935Z,6.29
2023-04-15T01:12:25.483Z,6.35
2023-04-15T01:14:52.910Z,6.44
2023-04-15T01:17:21.029Z,6.44
2023-04-15T01:19:49.632Z,6.40
2023-04-15T01:22:16.499Z,6.44
2023-04-15T01:24:46.693Z,6.45
2023-04-15T01:27:15.928Z,6.45
2023-04-15T01:29:43.148Z,6.48
2023-04-15T01:32:10.136Z,6.47
2023-04-15T01:34:37.086Z,6.47
2023-04-15T01:37:04.043Z,6.49
2023-04-15T01:39:31.146Z,6.40
2023-04-15T01:41:58.212Z,6.30
2023-04-15T01:44:26.730Z,6.30
2023-04-15T01:46:53.702Z,6.35
2023-04-15T01:49:20.820Z,6.34
2023-04-15T01:51:48.127Z,6.21
2023-04-15T01:54:15.093Z,6.08
2023-04-15T01:56:42.377Z,6.06
2023-04-15T01:59:09.983Z,6.11
2023-04-15T02:01:39.791Z,6.17
2023-04-15T02:04:07.448Z,6.14
2023-04-15T02:06:34.483Z,6.12
2023-04-15T02:09:01.757Z,6.11
2023-04-15T02:11:29.084Z,6.03
2023-04-15T02:13:56.965Z,5.99
2023-04-15T02:16:26.142Z,5.94
2023-04-15T02:18:54.533Z,5.84
2023-04-15T02:21:21.668Z,5.66
2023-04-15T02:23:48.888Z,5.68
2023-04-15T02:26:15.958Z,5.69
2023-04-15T02:28:43.082Z,5.65
2023-04-15T02:31:10.160Z,5.70
2023-04-15T02:33:37.902Z,5.75
2023-04-15T02:36:07.634Z,5.81
2023-04-15T02:38:34.648Z,5.76
2023-04-15T02:41:01.710Z,5.70
2023-04-15T02:43:28.789Z,5.69
2023-04-15T02:45:55.946Z,5.62
2023-04-15T02:48:23.015Z,5.56
2023-04-15T02:50:49.955Z,5.59
2023-04-15T02:53:20.113Z,5.62
2023-04-15T02:55:47.188Z,5.61
2023-04-15T02:58:14.572Z,5.63
2023-04-15T03:00:41.915Z,5.62
2023-04-15T03:03:09.160Z,5.64
2023-04-15T03:05:38.992Z,5.66
2023-04-15T03:08:06.709Z,5.76
2023-04-15T03:10:35.053Z,5.72
2023-04-15T03:13:02.258Z,5.61
2023-04-15T03:15:29.508Z,5.64
2023-04-15T03:17:56.651Z,5.74
2023-04-15T03:20:24.139Z,5.76
2023-04-15T03:22:51.724Z,5.62
2023-04-15T03:25:20.467Z,5.59
2023-04-15T03:27:48.843Z,5.58
2023-04-15T03:30:17.265Z,5.59
2023-04-15T03:32:44.360Z,5.68
2023-04-15T03:35:11.400Z,5.64
2023-04-15T03:37:38.346Z,5.64
2023-04-15T03:40:06.349Z,5.42
2023-04-15T03:42:33.319Z,5.31
2023-04-15T03:45:01.725Z,5.35
2023-04-15T03:47:28.726Z,5.37
2023-04-15T03:49:55.767Z,5.35
2023-04-15T03:52:22.743Z,5.19
2023-04-15T03:54:49.956Z,4.97
2023-04-15T03:57:16.852Z,4.96
2023-04-15T03:59:44.006Z,5.03
2023-04-15T04:02:12.401Z,4.90
2023-04-15T04:04:39.573Z,4.88
2023-04-15T04:07:06.620Z,4.92
2023-04-15T04:09:33.594Z,4.95
2023-04-15T04:12:01.342Z,5.06
2023-04-15T04:14:29.911Z,5.12
2023-04-15T04:16:57.620Z,5.25
2023-04-15T04:19:26.334Z,5.36
2023-04-15T04:21:53.426Z,5.47
2023-04-15T04:24:20.665Z,5.54
2023-04-15T04:26:47.942Z,5.60
2023-04-15T04:29:14.922Z,5.71
2023-04-15T04:31:41.988Z,5.81
2023-04-15T04:34:08.973Z,5.91
2023-04-15T04:36:37.336Z,5.84
2023-04-15T04:39:04.291Z,5.78
2023-04-15T04:41:32.369Z,5.81
2023-04-15T04:43:59.483Z,5.87
2023-04-15T04:46:26.596Z,5.97
2023-04-15T04:48:53.478Z,6.08
2023-04-15T04:51:20.892Z,6.23
2023-04-15T04:53:49.300Z,6.33
2023-04-15T04:56:16.443Z,6.41
2023-04-15T04:58:46.835Z,6.52
2023-04-15T05:01:13.881Z,6.61
2023-04-15T05:03:41.054Z,6.68
2023-04-15T05:06:08.936Z,6.77
2023-04-15T05:08:36.711Z,6.88
2023-04-15T05:11:06.239Z,7.02
2023-04-15T05:13:33.290Z,7.13
2023-04-15T05:16:00.286Z,7.22
2023-04-15T05:18:27.446Z,7.30
2023-04-15T05:20:54.408Z,7.32
2023-04-15T05:23:21.396Z,7.39
2023-04-15T05:25:48.367Z,7.46
2023-04-15T05:28:17.085Z,7.50
2023-04-15T05:30:44.092Z,7.60
2023-04-15T05:33:11.160Z,7.69
2023-04-15T05:35:38.161Z,7.84
2023-04-15T05:38:05.207Z,7.95
2023-04-15T05:40:32.145Z,8.07
2023-04-15T05:42:59.180Z,8.18
2023-04-15T05:45:27.656Z,8.23
2023-04-15T05:47:54.701Z,8.35
2023-04-15T05:50:21.794Z,8.45
2023-04-15T05:52:48.891Z,8.51
2023-04-15T05:55:16.245Z,8.63
2023-04-15T05:57:43.162Z,8.69
2023-04-15T06:00:11.415Z,8.72
2023-04-15T06:02:40.001Z,8.73
2023-04-15T06:05:09.997Z,8.86
2023-04-15T06:07:37.181Z,8.99
2023-04-15T06:10:04.933Z,9.09
2023-04-15T06:12:32.042Z,9.08
2023-04-15T06:15:00.127Z,9.09
2023-04-15T06:17:27.621Z,9.12
2023-04-15T06:19:56.262Z,9.26
2023-04-15T06:22:23.508Z,9.43
2023-04-15T06:24:51.642Z,9.59
2023-04-15T06:27:19.115Z,9.69
2023-04-15T06:29:46.318Z,9.83
2023-04-15T06:32:13.527Z,9.94
2023-04-15T06:34:40.771Z,9.97
2023-04-15T06:37:11.189Z,10.16
2023-04-15T06:39:38.400Z,10.36
2023-04-15T06:42:05.429Z,10.57
2023-04-15T06:44:33.906Z,10.73
2023-04-15T06:47:01.348Z,10.83
2023-04-15T06:49:28.440Z,10.94
2023-04-15T06:51:55.674Z,11.14
2023-04-15T06:54:24.196Z,11.33
2023-04-15T06:56:51.616Z,11.44
2023-04-15T06:59:19.060Z,11.54
2023-04-15T07:01:46.562Z,11.64
2023-04-15T07:04:13.604Z,11.78
2023-04-15T07:06:41.902Z,11.97
2023-04-15T07:09:09.047Z,12.19
2023-04-15T07:11:37.375Z,12.15
2023-04-15T07:14:04.117Z,12.23
2023-04-15T07:16:31.250Z,12.37
2023-04-15T07:18:58.397Z,12.50
2023-04-15T07:21:25.772Z,12.54
2023-04-15T07:23:52.767Z,12.72
2023-04-15T07:26:19.773Z,12.87
2023-04-15T07:28:48.250Z,13.09
2023-04-15T07:31:16.580Z,13.20
2023-04-15T07:33:46.218Z,13.15
2023-04-15T07:36:13.550Z,13.36
2023-04-15T07:38:40.507Z,13.54
2023-04-15T07:41:07.666Z,13.68
2023-04-15T07:43:34.617Z,13.70
2023-04-15T07:46:02.970Z,13.77
2023-04-15T07:48:30.116Z,13.91
2023-04-15T07:50:57.022Z,14.01
2023-04-15T07:53:24.112Z,14.07
2023-04-15T07:55:51.031Z,14.31
2023-04-15T07:58:18.017Z,14.52
2023-04-15T08:00:45.309Z,14.73
2023-04-15T08:03:13.765Z,14.85
2023-04-15T08:05:41.092Z,14.84
2023-04-15T08:08:08.516Z,14.94
2023-04-15T08:10:35.719Z,15.14
2023-04-15T08:13:02.861Z,15.31
2023-04-15T08:15:29.840Z,15.17
2023-04-15T08:17:56.816Z,15.48
2023-04-15T08:20:25.398Z,15.66
2023-04-15T08:22:52.718Z,15.78
2023-04-15T08:25:22.672Z,15.96
2023-04-15T08:27:49.773Z,16.20
2023-04-15T08:30:16.901Z,16.44
2023-04-15T08:32:47.096Z,16.59
2023-04-15T08:35:14.559Z,16.82
2023-04-15T08:37:42.976Z,16.91
2023-04-15T08:40:11.680Z,17.00
2023-04-15T08:42:45.827Z,17.20
2023-04-15T08:45:13.342Z,17.40
2023-04-15T08:47:40.777Z,17.49
2023-04-15T08:50:09.976Z,17.57
2023-04-15T08:52:37.333Z,17.70
2023-04-15T08:55:08.505Z,17.68
2023-04-15T08:57:36.199Z,17.38
2023-04-15T09:00:05.683Z,17.51
2023-04-15T09:02:33.173Z,17.83
2023-04-15T09:05:00.997Z,18.04
2023-04-15T09:07:28.035Z,18.00
2023-04-15T09:09:54.956Z,18.06
2023-04-15T09:12:23.252Z,18.32
2023-04-15T09:14:50.354Z,18.16
2023-04-15T09:17:19.781Z,18.00
2023-04-15T09:19:46.825Z,17.68
2023-04-15T09:22:14.482Z,17.85
2023-04-15T09:24:43.410Z,18.10
2023-04-15T09:27:11.301Z,18.15
2023-04-15T09:29:41.791Z,18.08
2023-04-15T09:32:13.298Z,17.97
2023-04-15T09:34:40.641Z,17.92
2023-04-15T09:37:08.116Z,18.00
2023-04-15T09:39:48.916Z,18.01
2023-04-15T09:42:17.190Z,17.26
2023-04-15T09:44:45.574Z,16.83
2023-04-15T09:47:27.796Z,16.57
2023-04-15T09:49:58.589Z,16.45
2023-04-15T09:52:26.141Z,16.51
2023-04-15T09:54:55.469Z,16.71
2023-04-15T09:57:23.714Z,16.68
2023-04-15T09:59:52.527Z,16.39
2023-04-15T10:02:21.424Z,16.12
2023-04-15T10:04:49.662Z,16.12
2023-04-15T10:07:18.186Z,16.39
2023-04-15T10:09:47.017Z,16.34
2023-04-15T10:12:15.147Z,16.45
2023-04-15T10:14:43.091Z,16.80
2023-04-15T10:17:12.727Z,17.20
2023-04-15T10:19:40.754Z,17.36
2023-04-15T10:22:07.684Z,17.68
2023-04-15T10:24:34.679Z,18.06
2023-04-15T10:27:03.819Z,18.70
2023-04-15T10:29:30.768Z,19.06
2023-04-15T10:31:59.268Z,19.15
2023-04-15T10:34:28.090Z,19.53
2023-04-15T10:36:56.614Z,19.90
2023-04-15T10:39:42.969Z,19.92
2023-04-15T10:42:11.307Z,20.08
2023-04-15T10:44:39.099Z,19.28
2023-04-15T10:47:10.886Z,19.32
2023-04-15T10:49:45.134Z,19.28
2023-04-15T10:52:12.771Z,19.14
2023-04-15T10:54:39.947Z,19.13
2023-04-15T10:57:15.112Z,19.44
2023-04-15T11:00:13.068Z,19.63
2023-04-15T11:02:47.366Z,20.00
2023-04-15T11:05:16.935Z,19.61
2023-04-15T11:07:52.198Z,18.85
2023-04-15T11:10:52.960Z,18.96
2023-04-15T11:13:27.219Z,18.54
2023-04-15T11:15:58.458Z,18.20
2023-04-15T11:18:28.251Z,17.81
2023-04-15T11:20:57.690Z,18.06
2023-04-15T11:23:29.663Z,18.39
2023-04-15T11:25:58.020Z,18.09
2023-04-15T11:28:26.527Z,18.27
2023-04-15T11:30:55.646Z,18.48
2023-04-15T11:33:23.894Z,18.67
2023-04-15T11:36:09.454Z,18.52
2023-04-15T11:38:38.242Z,18.37
2023-04-15T11:41:05.194Z,18.26
2023-04-15T11:43:32.546Z,18.55
2023-04-15T11:46:01.370Z,18.69
2023-04-15T11:48:30.829Z,18.41
2023-04-15T11:51:01.407Z,18.68
2023-04-15T11:53:39.491Z,18.89
2023-04-15T11:56:07.837Z,18.57
2023-04-15T11:58:35.534Z,18.17
2023-04-15T12:01:03.033Z,18.09
2023-04-15T12:03:31.676Z,18.21
2023-04-15T12:06:15.041Z,18.41
2023-04-15T12:08:58.540Z,18.23
2023-04-15T12:11:44.469Z,18.00
2023-04-15T12:14:13.953Z,17.77
2023-04-15T12:16:49.075Z,18.05
2023-04-15T12:19:19.484Z,18.28
2023-04-15T12:21:48.258Z,18.44
2023-04-15T12:24:21.207Z,18.43
2023-04-15T12:26:50.068Z,18.33
2023-04-15T12:29:17.928Z,18.37
2023-04-15T12:31:52.963Z,18.42
2023-04-15T12:34:27.096Z,18.34
2023-04-15T12:36:54.255Z,18.35
2023-04-15T12:39:24.401Z,18.36
2023-04-15T12:41:51.688Z,18.35
2023-04-15T12:44:18.931Z,18.53
2023-04-15T12:46:46.291Z,18.63
2023-04-15T12:49:14.939Z,18.40
2023-04-15T12:51:42.129Z,18.39
2023-04-15T12:54:09.192Z,18.38
2023-04-15T12:56:37.585Z,18.46
2023-04-15T12:59:04.932Z,18.77
2023-04-15T13:01:31.925Z,18.94
2023-04-15T13:03:59.213Z,18.93
2023-04-15T13:06:26.317Z,19.19
2023-04-15T13:08:58.498Z,19.11
2023-04-15T13:11:26.076Z,19.06
2023-04-15T13:13:54.500Z,18.90
2023-04-15T13:16:22.049Z,18.60
2023-04-15T13:18:49.219Z,18.59
2023-04-15T13:21:17.000Z,19.13
2023-04-15T13:23:46.630Z,19.74
2023-04-15T13:26:13.560Z,19.71
2023-04-15T13:28:40.571Z,19.74
2023-04-15T13:31:09.034Z,19.67
2023-04-15T13:33:36.537Z,19.61
2023-04-15T13:36:03.632Z,19.61
2023-04-15T13:38:30.599Z,19.67
2023-04-15T13:40:57.643Z,19.75
2023-04-15T13:43:24.635Z,19.76
2023-04-15T13:45:51.990Z,19.84
2023-04-15T13:48:20.381Z,19.83
2023-04-15T13:50:47.311Z,19.85
2023-04-15T13:53:14.316Z,20.03
2023-04-15T13:55:42.763Z,20.12
2023-04-15T13:58:09.979Z,19.80
2023-04-15T14:00:37.106Z,19.88
2023-04-15T14:03:04.386Z,19.73
2023-04-15T14:05:33.263Z,19.67
2023-04-15T14:08:02.117Z,19.65
2023-04-15T14:10:29.381Z,19.58
2023-04-15T14:12:56.373Z,19.57
2023-04-15T14:15:23.408Z,19.57
2023-04-15T14:17:50.552Z,19.61
2023-04-15T14:20:17.740Z,19.70
2023-04-15T14:22:46.339Z,19.49
2023-04-15T14:25:23.033Z,19.40
2023-04-15T14:27:57.681Z,19.20
2023-04-15T14:30:24.664Z,19.08
2023-04-15T14:32:51.602Z,19.00
2023-04-15T14:35:18.698Z,18.85
2023-04-15T14:37:47.000Z,18.95
2023-04-15T14:40:14.063Z,19.13
2023-04-15T14:42:41.169Z,19.16
2023-04-15T14:45:09.552Z,19.30
2023-04-15T14:47:36.707Z,19.18
2023-04-15T14:50:04.035Z,19.04
2023-04-15T14:52:32.306Z,18.83
2023-04-15T14:55:00.881Z,18.77
2023-04-15T14:57:27.834Z,18.33
2023-04-15T14:59:56.734Z,18.12
2023-04-15T15:02:37.367Z,18.15
2023-04-15T15:05:05.628Z,17.85
2023-04-15T15:07:32.743Z,17.96
2023-04-15T15:10:01.163Z,17.96
2023-04-15T15:12:28.187Z,18.06
2023-04-15T15:14:55.547Z,18.02
2023-04-15T15:17:22.692Z,17.73
2023-04-15T15:19:49.809Z,17.48
2023-04-15T15:22:17.632Z,17.50
2023-04-15T15:24:45.898Z,17.61
2023-04-15T15:27:14.252Z,17.70
2023-04-15T15:29:41.384Z,17.81
2023-04-15T15:32:08.397Z,17.89
2023-04-15T15:34:35.345Z,17.75
2023-04-15T15:37:02.366Z,17.53
2023-04-15T15:39:29.375Z,17.67
2023-04-15T15:41:56.532Z,17.94
2023-04-15T15:44:24.966Z,17.88
2023-04-15T15:46:52.050Z,17.84
2023-04-15T15:49:19.803Z,17.89
2023-04-15T15:51:46.851Z,18.07
2023-04-15T15:54:13.861Z,17.87
2023-04-15T15:56:42.161Z,18.03
2023-04-15T15:59:09.160Z,18.07
2023-04-15T16:01:37.596Z,18.15
2023-04-15T16:04:04.684Z,18.20
2023-04-15T16:06:34.446Z,18.37
2023-04-15T16:09:02.346Z,18.58
2023-04-15T16:11:29.489Z,18.42
2023-04-15T16:13:56.555Z,18.38
2023-04-15T16:16:24.336Z,18.36
2023-04-15T16:18:52.782Z,18.36
2023-04-15T16:21:20.373Z,18.47
2023-04-15T16:23:47.484Z,18.28
2023-04-15T16:26:14.472Z,18.17
2023-04-15T16:28:41.639Z,18.14
2023-04-15T16:31:08.731Z,17.82
2023-04-15T16:33:35.766Z,17.64
2023-04-15T16:36:04.867Z,17.58
2023-04-15T16:38:31.997Z,17.45
2023-04-15T16:41:00.828Z,17.14
2023-04-15T16:43:28.060Z,17.00
2023-04-15T16:45:55.233Z,16.93
2023-04-15T16:48:22.275Z,16.82
2023-04-15T16:50:49.452Z,16.67
2023-04-15T16:53:17.868Z,16.77
2023-04-15T16:55:44.880Z,16.86
2023-04-15T16:58:11.950Z,16.88
2023-04-15T17:00:38.986Z,16.94
2023-04-15T17:03:06.472Z,16.94
2023-04-15T17:05:33.736Z,16.84
2023-04-15T17:08:00.757Z,16.72
2023-04-15T17:10:29.235Z,16.48
2023-04-15T17:12:56.858Z,16.21
2023-04-15T17:15:23.995Z,16.08
2023-04-15T17:17:51.075Z,15.73
2023-04-15T17:20:18.446Z,15.41
2023-04-15T17:22:45.803Z,15.20
2023-04-15T17:25:13.580Z,14.87
2023-04-15T17:27:41.989Z,14.73
2023-04-15T17:30:09.834Z,14.55
2023-04-15T17:32:37.289Z,14.44
2023-04-15T17:35:06.567Z,14.27
2023-04-15T17:37:33.879Z,14.10
2023-04-15T17:40:00.944Z,14.05
2023-04-15T17:42:27.919Z,13.99
2023-04-15T17:44:56.375Z,13.91
2023-04-15T17:47:23.627Z,13.82
2023-04-15T17:49:50.603Z,13.72
2023-04-15T17:52:17.659Z,13.60
2023-04-15T17:54:45.837Z,13.41
2023-04-15T17:57:12.773Z,13.06
2023-04-15T17:59:43.961Z,12.74
2023-04-15T18:02:12.653Z,12.69
2023-04-15T18:04:39.890Z,12.70
2023-04-15T18:07:07.007Z,12.75
2023-04-15T18:09:34.096Z,12.71
2023-04-15T18:12:02.176Z,12.47
2023-04-15T18:14:34.616Z,12.32
2023-04-15T18:17:02.452Z,12.19
2023-04-15T18:19:31.780Z,12.11
2023-04-15T18:22:00.233Z,12.07
2023-04-15T18:24:27.810Z,12.15
2023-04-15T18:26:54.849Z,12.12
2023-04-15T18:29:22.047Z,12.07
2023-04-15T18:31:49.146Z,11.92
2023-04-15T18:34:16.179Z,11.80
2023-04-15T18:36:44.507Z,11.79
2023-04-15T18:39:11.228Z,11.77
2023-04-15T18:41:38.349Z,11.73
2023-04-15T18:44:05.536Z,11.62
2023-04-15T18:46:32.484Z,11.44
2023-04-15T18:48:59.506Z,11.38
2023-04-15T18:51:27.462Z,11.45
2023-04-15T18:53:56.056Z,11.45
2023-04-15T18:56:22.750Z,11.36
2023-04-15T18:59:08.863Z,11.25
2023-04-15T19:01:36.848Z,11.23
2023-04-15T19:04:04.029Z,11.14
2023-04-15T19:06:31.171Z,11.06
2023-04-15T19:08:59.617Z,11.03
2023-04-15T19:11:26.384Z,11.03
2023-04-15T19:13:53.440Z,10.89
2023-04-15T19:16:20.537Z,10.84
2023-04-15T19:18:47.533Z,10.77
2023-04-15T19:21:14.593Z,10.81
2023-04-15T19:23:43.053Z,10.87
2023-04-15T19:26:11.931Z,10.90
2023-04-15T19:28:39.022Z,10.90
2023-04-15T19:31:06.131Z,10.91
2023-04-15T19:33:33.194Z,10.95
2023-04-15T19:36:01.559Z,11.03
2023-04-15T19:38:28.356Z,11.14
2023-04-15T19:40:55.298Z,11.16
2023-04-15T19:43:23.827Z,11.03
2023-04-15T19:45:53.110Z,10.99
2023-04-15T19:48:20.160Z,10.95
2023-04-15T19:50:47.180Z,10.86
2023-04-15T19:53:14.344Z,10.80
2023-04-15T19:55:41.601Z,10.76
2023-04-15T19:58:08.528Z,10.76
2023-04-15T20:00:36.913Z,10.72
2023-04-15T20:03:03.802Z,10.62
2023-04-15T20:05:30.893Z,10.55
2023-04-15T20:07:59.829Z,10.51
2023-04-15T20:10:27.267Z,10.50
2023-04-15T20:12:54.273Z,10.42
2023-04-15T20:15:23.482Z,10.41
2023-04-15T20:17:52.293Z,10.38
2023-04-15T20:20:19.822Z,10.34
2023-04-15T20:22:46.945Z,10.40
2023-04-15T20:25:14.074Z,10.46
2023-04-15T20:27:41.112Z,10.53
2023-04-15T20:30:09.030Z,10.60
2023-04-15T20:32:36.510Z,10.63
2023-04-15T20:35:05.909Z,10.69
2023-04-15T20:37:33.620Z,10.73
2023-04-15T20:40:01.636Z,10.63
2023-04-15T20:42:32.552Z,10.55
2023-04-15T20:44:59.711Z,10.58
2023-04-15T20:47:26.820Z,10.60
2023-04-15T20:49:54.314Z,10.64
2023-04-15T20:52:22.664Z,10.68
2023-04-15T20:54:50.075Z,10.71
2023-04-15T20:57:17.310Z,10.74
2023-04-15T20:59:44.271Z,10.69
2023-04-15T21:02:11.629Z,10.71
2023-04-15T21:04:38.948Z,10.65
2023-04-15T21:07:06.035Z,10.59
2023-04-15T21:09:34.555Z,10.49
2023-04-15T21:12:02.297Z,10.47
2023-04-15T21:14:29.516Z,10.51
2023-04-15T21:16:57.014Z,10.53
2023-04-15T21:19:23.997Z,10.52
2023-04-15T21:21:51.052Z,10.45
2023-04-15T21:24:17.969Z,10.45
2023-04-15T21:26:46.356Z,10.35
2023-04-15T21:29:13.840Z,10.29
2023-04-15T21:31:41.077Z,10.32
2023-04-15T21:34:08.417Z,10.34
2023-04-15T21:36:35.372Z,10.32
2023-04-15T21:39:02.465Z,10.44
2023-04-15T21:41:29.683Z,10.50
2023-04-15T21:43:58.132Z,10.50
2023-04-15T21:46:32.749Z,10.60
2023-04-15T21:49:00.543Z,10.65
2023-04-15T21:51:27.800Z,10.57
2023-04-15T21:53:54.911Z,10.62
2023-04-15T21:56:24.397Z,10.60
2023-04-15T21:58:54.924Z,10.52
2023-04-15T22:01:23.631Z,10.53
2023-04-15T22:03:51.129Z,10.57
2023-04-15T22:06:18.564Z,10.60
2023-04-15T22:08:56.225Z,10.57
2023-04-15T22:11:32.507Z,10.61
2023-04-15T22:13:59.762Z,10.64
2023-04-15T22:16:28.638Z,10.69
2023-04-15T22:18:56.147Z,10.74
2023-04-15T22:21:23.396Z,10.78
2023-04-15T22:23:51.301Z,10.69
2023-04-15T22:26:18.266Z,10.68
2023-04-15T22:28:45.362Z,10.68
2023-04-15T22:31:12.392Z,10.58
2023-04-15T22:33:40.784Z,10.56
2023-04-15T22:36:07.901Z,10.51
2023-04-15T22:38:34.900Z,10.37
2023-04-15T22:41:01.916Z,10.32
2023-04-15T22:43:28.945Z,10.27
2023-04-15T22:45:56.630Z,10.19
2023-04-15T22:48:23.818Z,10.12
2023-04-15T22:50:52.177Z,10.18
2023-04-15T22:53:19.331Z,10.02
2023-04-15T22:55:46.786Z,9.94
2023-04-15T22:58:14.030Z,9.92
2023-04-15T23:00:41.151Z,9.89
2023-04-15T23:03:08.383Z,9.86
2023-04-15T23:05:35.552Z,9.82
2023-04-15T23:08:03.932Z,9.85
2023-04-15T23:10:30.739Z,9.92
2023-04-15T23:12:57.690Z,9.93
2023-04-15T23:15:24.646Z,9.98
2023-04-15T23:17:51.794Z,9.99
2023-04-15T23:20:18.742Z,9.98
2023-04-15T23:22:45.851Z,9.93
2023-04-15T23:25:14.251Z,9.80
2023-04-15T23:27:41.220Z,9.81
2023-04-15T23:30:08.918Z,9.81
2023-04-15T23:32:35.996Z,9.81
2023-04-15T23:35:03.332Z,9.73
2023-04-15T23:37:31.416Z,9.69
2023-04-15T23:39:58.393Z,9.68
2023-04-15T23:42:27.184Z,9.64
2023-04-15T23:44:54.111Z,9.63
2023-04-15T23:47:21.496Z,9.57
2023-04-15T23:49:48.519Z,9.57
2023-04-15T23:52:15.485Z,9.49
2023-04-15T23:54:42.535Z,9.46
2023-04-15T23:57:09.590Z,9.48
2023-04-15T23:59:37.896Z,9.51
